createdAt,value
2022-09-01T00:00:11.424Z,15.41
2022-09-01T00:02:57.278Z,15.39
2022-09-01T00:05:30.502Z,15.35
2022-09-01T00:08:18.505Z,15.36
2022-09-01T00:11:18.856Z,15.36
2022-09-01T00:13:55.444Z,15.33
2022-09-01T00:16:27.920Z,15.31
2022-09-01T00:19:10.758Z,15.30
2022-09-01T00:21:45.876Z,15.30
2022-09-01T00:24:30.313Z,15.31
2022-09-01T00:27:02.639Z,15.31
2022-09-01T00:29:34.064Z,15.29
2022-09-01T00:32:17.279Z,15.27
2022-09-01T00:34:49.857Z,15.25
2022-09-01T00:37:25.592Z,15.24
2022-09-01T00:40:27.485Z,15.23
2022-09-01T00:42:56.145Z,15.22
2022-09-01T00:45:28.902Z,15.20
2022-09-01T00:48:06.679Z,15.16
2022-09-01T00:50:42.517Z,15.13
2022-09-01T00:53:15.552Z,15.13
2022-09-01T00:55:49.099Z,15.10
2022-09-01T00:58:21.644Z,15.13
2022-09-01T01:01:00.488Z,15.12
2022-09-01T01:03:36.688Z,15.12
2022-09-01T01:06:10.886Z,15.14
2022-09-01T01:08:57.469Z,15.15
2022-09-01T01:11:32.746Z,15.18
2022-09-01T01:14:12.186Z,15.20
2022-09-01T01:16:45.850Z,15.21
2022-09-01T01:19:46.708Z,15.23
2022-09-01T01:22:39.251Z,15.25
2022-09-01T01:25:13.320Z,15.24
2022-09-01T01:27:45.734Z,15.22
2022-09-01T01:30:23.901Z,15.21
2022-09-01T01:32:58.008Z,15.19
2022-09-01T01:35:34.267Z,15.19
2022-09-01T01:38:11.768Z,15.20
2022-09-01T01:40:45.100Z,15.20
2022-09-01T01:43:20.514Z,15.20
2022-09-01T01:46:05.732Z,15.19
2022-09-01T01:48:47.412Z,15.19
2022-09-01T01:51:22.018Z,15.19
2022-09-01T01:53:55.859Z,15.18
2022-09-01T01:56:42.737Z,15.15
2022-09-01T01:59:15.130Z,15.11
2022-09-01T02:01:51.964Z,15.10
2022-09-01T02:04:36.529Z,15.08
2022-09-01T02:07:19.162Z,15.05
2022-09-01T02:09:54.110Z,15.01
2022-09-01T02:12:36.788Z,14.97
2022-09-01T02:15:27.630Z,14.94
2022-09-01T02:18:11.040Z,14.92
2022-09-01T02:25:32.356Z,14.88
2022-09-01T02:28:28.537Z,14.87
2022-09-01T02:31:03.016Z,14.86
2022-09-01T02:33:35.534Z,14.83
2022-09-01T02:36:06.777Z,14.80
2022-09-01T02:38:46.786Z,14.79
2022-09-01T02:41:35.083Z,14.77
2022-09-01T02:44:15.643Z,14.74
2022-09-01T02:46:50.751Z,14.73
2022-09-01T02:49:28.785Z,14.73
2022-09-01T02:52:03.314Z,14.72
2022-09-01T02:54:36.912Z,14.70
2022-09-01T02:57:13.952Z,14.65
2022-09-01T03:04:21.301Z,14.54
2022-09-01T03:06:59.159Z,14.55
2022-09-01T03:09:33.655Z,14.58
2022-09-01T03:12:09.340Z,14.57
2022-09-01T03:14:44.811Z,14.56
2022-09-01T03:17:27.035Z,14.55
2022-09-01T03:20:01.660Z,14.56
2022-09-01T03:22:43.044Z,14.58
2022-09-01T03:25:17.772Z,14.59
2022-09-01T03:27:50.755Z,14.62
2022-09-01T03:30:28.150Z,14.63
2022-09-01T03:33:07.834Z,14.65
2022-09-01T03:35:45.379Z,14.66
2022-09-01T03:38:42.533Z,14.68
2022-09-01T03:45:58.286Z,14.71
2022-09-01T03:48:40.864Z,14.71
2022-09-01T03:51:16.661Z,14.71
2022-09-01T03:53:49.907Z,14.71
2022-09-01T03:56:25.225Z,14.70
2022-09-01T03:59:00.880Z,14.69
2022-09-01T04:01:44.752Z,14.66
2022-09-01T04:04:18.113Z,14.64
2022-09-01T04:11:46.050Z,14.60
2022-09-01T04:14:24.534Z,14.55
2022-09-01T04:17:18.738Z,14.51
2022-09-01T04:20:09.996Z,14.48
2022-09-01T04:22:43.560Z,14.46
2022-09-01T04:25:26.069Z,14.40
2022-09-01T04:27:59.398Z,14.38
2022-09-01T04:30:33.618Z,14.34
2022-09-01T04:33:04.124Z,14.34
2022-09-01T04:35:37.792Z,14.33
2022-09-01T04:38:09.611Z,14.33
2022-09-01T04:40:42.064Z,14.32
2022-09-01T04:43:12.505Z,14.31
2022-09-01T04:45:43.042Z,14.31
2022-09-01T04:48:13.408Z,14.31
2022-09-01T04:50:49.574Z,14.31
2022-09-01T04:53:29.466Z,14.33
2022-09-01T04:56:05.484Z,14.39
2022-09-01T04:58:39.133Z,14.42
2022-09-01T05:01:18.359Z,14.43
2022-09-01T05:03:56.420Z,14.47
2022-09-01T05:06:40.945Z,14.48
2022-09-01T05:09:12.086Z,14.48
2022-09-01T05:12:12.361Z,14.49
2022-09-01T05:14:48.953Z,14.51
2022-09-01T05:17:25.063Z,14.55
2022-09-01T05:19:56.807Z,14.69
2022-09-01T05:22:27.392Z,14.94
2022-09-01T05:25:11.701Z,15.21
2022-09-01T05:27:49.395Z,15.38
2022-09-01T05:30:20.875Z,15.40
2022-09-01T05:32:52.514Z,15.36
2022-09-01T05:35:27.889Z,15.31
2022-09-01T05:38:08.921Z,15.27
2022-09-01T05:40:40.995Z,15.23
2022-09-01T05:43:13.626Z,15.25
2022-09-01T05:46:05.571Z,15.37
2022-09-01T05:48:40.035Z,15.51
2022-09-01T05:51:40.443Z,15.50
2022-09-01T05:54:09.819Z,15.52
2022-09-01T05:56:44.127Z,15.55
2022-09-01T05:59:24.426Z,15.60
2022-09-01T06:01:58.868Z,15.64
2022-09-01T06:04:30.298Z,15.72
2022-09-01T06:07:09.592Z,15.75
2022-09-01T06:09:49.856Z,15.80
2022-09-01T06:12:25.220Z,15.85
2022-09-01T06:14:57.848Z,15.88
2022-09-01T06:17:30.945Z,15.95
2022-09-01T06:20:11.117Z,16.04
2022-09-01T06:22:46.216Z,16.13
2022-09-01T06:25:18.918Z,16.18
2022-09-01T06:27:52.684Z,16.22
2022-09-01T06:30:27.495Z,16.27
2022-09-01T06:33:09.491Z,16.37
2022-09-01T06:35:44.935Z,16.50
2022-09-01T06:38:19.213Z,16.57
2022-09-01T06:41:00.932Z,16.59
2022-09-01T06:43:33.481Z,16.60
2022-09-01T06:46:05.975Z,16.61
2022-09-01T06:48:40.265Z,16.61
2022-09-01T06:51:20.222Z,16.61
2022-09-01T06:54:00.704Z,16.60
2022-09-01T06:56:41.546Z,16.61
2022-09-01T06:59:18.369Z,16.66
2022-09-01T07:02:01.498Z,16.71
2022-09-01T07:05:06.054Z,16.78
2022-09-01T07:17:49.032Z,17.34
2022-09-01T07:20:24.587Z,17.45
2022-09-01T07:23:06.515Z,17.68
2022-09-01T07:26:01.001Z,17.88
2022-09-01T07:28:36.949Z,18.15
2022-09-01T07:39:48.492Z,19.09
2022-09-01T07:51:36.538Z,19.84
2022-09-01T07:54:08.225Z,20.01
2022-09-01T07:56:40.571Z,20.19
2022-09-01T07:59:15.575Z,20.29
2022-09-01T08:01:57.298Z,20.32
2022-09-01T08:04:28.083Z,20.33
2022-09-01T08:06:58.930Z,20.34
2022-09-01T08:09:37.463Z,20.29
2022-09-01T08:12:09.636Z,20.35
2022-09-01T08:14:43.476Z,20.56
2022-09-01T08:17:18.406Z,20.79
2022-09-01T08:20:10.371Z,20.94
2022-09-01T08:23:05.204Z,21.13
2022-09-01T08:25:39.140Z,21.33
2022-09-01T08:28:09.753Z,21.49
2022-09-01T08:30:41.581Z,21.55
2022-09-01T08:33:20.271Z,21.87
2022-09-01T08:35:51.884Z,22.18
2022-09-01T08:38:22.848Z,22.48
2022-09-01T08:40:57.378Z,22.63
2022-09-01T08:43:41.541Z,22.89
2022-09-01T08:46:18.339Z,23.03
2022-09-01T08:49:24.071Z,23.19
2022-09-01T08:52:09.326Z,23.30
2022-09-01T08:54:45.708Z,23.23
2022-09-01T08:57:21.023Z,23.14
2022-09-01T09:00:20.388Z,23.15
2022-09-01T09:03:06.100Z,23.44
2022-09-01T09:05:48.545Z,23.90
2022-09-01T09:08:55.149Z,24.32
2022-09-01T09:11:55.511Z,24.43
2022-09-01T09:14:37.527Z,24.17
2022-09-01T09:17:08.397Z,23.87
2022-09-01T09:19:40.743Z,23.79
2022-09-01T09:22:13.064Z,23.70
2022-09-01T09:24:50.920Z,23.66
2022-09-01T09:27:23.529Z,23.89
2022-09-01T09:30:01.763Z,24.24
2022-09-01T09:35:41.986Z,24.64
2022-09-01T09:38:28.558Z,24.85
2022-09-01T09:41:17.209Z,25.07
2022-09-01T09:43:52.361Z,25.44
2022-09-01T09:46:35.022Z,25.74
2022-09-01T09:49:21.595Z,25.90
2022-09-01T09:52:18.609Z,25.94
2022-09-01T09:55:07.102Z,26.21
2022-09-01T09:57:42.413Z,26.43
2022-09-01T10:00:24.489Z,26.43
2022-09-01T10:03:00.437Z,26.42
2022-09-01T10:05:37.734Z,26.47
2022-09-01T10:08:10.747Z,26.58
2022-09-01T10:10:44.395Z,26.65
2022-09-01T10:13:17.032Z,26.68
2022-09-01T10:15:52.804Z,26.76
2022-09-01T10:18:29.827Z,26.87
2022-09-01T10:21:02.723Z,26.95
2022-09-01T10:23:37.702Z,27.03
2022-09-01T10:26:13.252Z,27.11
2022-09-01T10:28:51.282Z,27.17
2022-09-01T10:31:22.948Z,27.19
2022-09-01T10:33:53.730Z,27.30
2022-09-01T10:36:24.780Z,27.13
2022-09-01T10:39:04.353Z,26.80
2022-09-01T10:42:00.466Z,27.29
2022-09-01T10:44:34.359Z,27.71
2022-09-01T10:47:16.227Z,27.91
2022-09-01T10:50:02.261Z,28.09
2022-09-01T10:52:55.812Z,28.23
2022-09-01T10:55:28.369Z,28.47
2022-09-01T10:59:30.316Z,28.88
2022-09-01T11:01:34.938Z,28.98
2022-09-01T11:03:57.056Z,29.24
2022-09-01T11:07:13.084Z,29.44
2022-09-01T11:09:44.955Z,29.78
2022-09-01T11:12:30.491Z,29.95
2022-09-01T11:15:03.476Z,30.19
2022-09-01T11:17:39.255Z,30.36
2022-09-01T11:20:21.565Z,30.05
2022-09-01T11:23:03.540Z,30.18
2022-09-01T11:25:45.124Z,30.45
2022-09-01T11:28:42.025Z,30.82
2022-09-01T11:31:29.676Z,31.08
2022-09-01T11:34:10.864Z,31.32
2022-09-01T11:36:51.924Z,31.63
2022-09-01T11:39:32.762Z,31.83
2022-09-01T11:42:07.527Z,31.94
2022-09-01T11:44:42.480Z,32.07
2022-09-01T11:47:17.185Z,32.39
2022-09-01T11:49:53.704Z,32.76
2022-09-01T11:52:26.308Z,32.93
2022-09-01T11:54:56.635Z,33.28
2022-09-01T11:57:29.600Z,33.43
2022-09-01T12:00:01.226Z,33.35
2022-09-01T12:02:34.398Z,33.55
2022-09-01T12:05:26.952Z,33.38
2022-09-01T12:07:58.451Z,33.11
2022-09-01T12:10:30.760Z,33.10
2022-09-01T12:13:06.683Z,32.37
2022-09-01T12:16:00.426Z,32.06
2022-09-01T12:18:35.549Z,31.25
2022-09-01T12:21:09.448Z,31.14
2022-09-01T12:23:43.125Z,31.88
2022-09-01T12:26:15.708Z,32.61
2022-09-01T12:28:46.352Z,32.70
2022-09-01T12:31:18.393Z,31.23
2022-09-01T12:33:50.030Z,29.72
2022-09-01T12:36:26.039Z,28.56
2022-09-01T12:38:58.229Z,27.87
2022-09-01T12:41:35.804Z,28.70
2022-09-01T12:44:30.884Z,30.41
2022-09-01T12:47:03.394Z,31.40
2022-09-01T12:49:45.370Z,31.67
2022-09-01T12:52:25.943Z,32.62
2022-09-01T12:55:08.747Z,33.50
2022-09-01T12:57:43.147Z,33.98
2022-09-01T13:00:24.709Z,34.40
2022-09-01T13:03:08.041Z,33.42
2022-09-01T13:05:42.343Z,31.56
2022-09-01T13:08:15.703Z,30.36
2022-09-01T13:10:47.872Z,29.34
2022-09-01T13:13:18.981Z,28.54
2022-09-01T13:15:53.037Z,27.81
2022-09-01T13:18:25.318Z,27.26
2022-09-01T13:20:56.005Z,28.14
2022-09-01T13:23:26.714Z,29.65
2022-09-01T13:25:58.961Z,30.84
2022-09-01T13:28:29.526Z,30.84
2022-09-01T13:34:23.019Z,28.90
2022-09-01T13:36:49.322Z,27.85
2022-09-01T13:39:23.027Z,27.48
2022-09-01T13:41:53.446Z,28.28
2022-09-01T13:44:23.847Z,28.19
2022-09-01T13:50:06.511Z,30.73
2022-09-01T13:52:36.408Z,32.63
2022-09-01T13:55:08.021Z,34.07
2022-09-01T13:57:38.368Z,34.98
2022-09-01T14:00:12.483Z,35.73
2022-09-01T14:02:49.923Z,36.55
2022-09-01T14:05:22.660Z,37.16
2022-09-01T14:07:54.837Z,37.64
2022-09-01T14:10:27.895Z,36.97
2022-09-01T14:12:59.872Z,37.15
2022-09-01T14:15:32.858Z,37.30
2022-09-01T14:18:06.083Z,37.58
2022-09-01T14:20:41.187Z,37.75
2022-09-01T14:23:13.885Z,36.64
2022-09-01T14:25:51.011Z,34.45
2022-09-01T14:28:25.132Z,32.38
2022-09-01T14:33:28.899Z,29.60
2022-09-01T14:36:01.244Z,28.68
2022-09-01T14:38:32.943Z,27.94
2022-09-01T14:41:06.849Z,27.35
2022-09-01T14:43:43.123Z,26.79
2022-09-01T14:46:16.154Z,26.38
2022-09-01T14:48:49.190Z,26.18
2022-09-01T14:51:26.182Z,25.99
2022-09-01T14:53:58.944Z,25.73
2022-09-01T14:56:30.449Z,25.39
2022-09-01T14:59:02.983Z,25.12
2022-09-01T15:01:35.692Z,24.88
2022-09-01T15:04:08.001Z,24.65
2022-09-01T15:12:43.995Z,24.10
2022-09-01T15:15:14.603Z,24.02
2022-09-01T15:17:46.561Z,24.02
2022-09-01T15:20:34.805Z,24.05
2022-09-01T15:23:05.903Z,24.09
2022-09-01T15:25:37.180Z,24.09
2022-09-01T15:28:07.651Z,24.08
2022-09-01T15:30:38.747Z,24.08
2022-09-01T15:33:15.199Z,24.05
2022-09-01T15:35:46.113Z,24.04
2022-09-01T15:38:18.300Z,23.98
2022-09-01T15:40:57.165Z,23.91
2022-09-01T15:43:29.493Z,23.87
2022-09-01T15:46:02.760Z,23.86
2022-09-01T15:48:33.501Z,23.80
2022-09-01T15:51:27.801Z,23.77
2022-09-01T15:54:00.039Z,23.75
2022-09-01T15:56:31.896Z,23.73
2022-09-01T15:59:03.487Z,23.70
2022-09-01T16:01:37.485Z,23.69
2022-09-01T16:04:09.011Z,23.69
2022-09-01T16:06:40.485Z,23.67
2022-09-01T16:09:12.291Z,23.64
2022-09-01T16:11:42.846Z,23.62
2022-09-01T16:14:14.122Z,23.64
2022-09-01T16:16:52.746Z,23.65
2022-09-01T16:19:33.663Z,23.67
2022-09-01T16:22:11.835Z,23.64
2022-09-01T16:24:44.841Z,23.60
2022-09-01T16:27:17.806Z,23.57
2022-09-01T16:29:51.675Z,23.53
2022-09-01T16:32:23.286Z,23.48
2022-09-01T16:34:54.410Z,23.39
2022-09-01T16:37:42.873Z,23.28
2022-09-01T16:40:23.041Z,23.18
2022-09-01T16:43:00.405Z,23.08
2022-09-01T16:45:43.245Z,22.95
2022-09-01T16:48:22.087Z,22.81
2022-09-01T16:50:58.396Z,22.70
2022-09-01T16:53:54.143Z,22.61
2022-09-01T16:56:29.313Z,22.47
2022-09-01T16:59:08.109Z,22.39
2022-09-01T17:01:45.222Z,22.31
2022-09-01T17:04:33.891Z,22.22
2022-09-01T17:07:09.584Z,22.13
2022-09-01T17:09:42.071Z,22.04
2022-09-01T17:12:22.585Z,21.97
2022-09-01T17:14:58.252Z,21.87
2022-09-01T17:17:35.533Z,21.79
2022-09-01T17:20:08.463Z,21.67
2022-09-01T17:22:39.424Z,21.61
2022-09-01T17:25:14.846Z,21.55
2022-09-01T17:27:52.911Z,21.50
2022-09-01T17:30:23.361Z,21.44
2022-09-01T17:33:17.154Z,21.40
2022-09-01T17:35:58.486Z,21.34
2022-09-01T17:38:35.493Z,21.26
2022-09-01T17:41:15.951Z,21.19
2022-09-01T17:43:53.804Z,21.13
2022-09-01T17:46:31.147Z,21.07
2022-09-01T17:49:09.141Z,21.00
2022-09-01T17:51:42.731Z,20.93
2022-09-01T17:54:20.121Z,20.85
2022-09-01T17:56:56.927Z,20.75
2022-09-01T17:59:31.860Z,20.67
2022-09-01T18:02:18.217Z,20.57
2022-09-01T18:05:09.576Z,20.48
2022-09-01T18:07:53.655Z,20.38
2022-09-01T18:10:27.660Z,20.28
2022-09-01T18:13:03.587Z,20.18
2022-09-01T18:15:52.059Z,20.06
2022-09-01T18:18:33.342Z,19.94
2022-09-01T18:21:07.133Z,19.81
2022-09-01T18:23:41.030Z,19.67
2022-09-01T18:26:20.429Z,19.52
2022-09-01T18:28:54.017Z,19.37
2022-09-01T18:31:52.212Z,19.22
2022-09-01T18:34:28.269Z,19.06
2022-09-01T18:37:03.553Z,18.92
2022-09-01T18:39:41.027Z,18.80
2022-09-01T18:42:15.739Z,18.70
2022-09-01T18:44:51.797Z,18.61
2022-09-01T18:47:29.381Z,18.55
2022-09-01T18:50:05.088Z,18.48
2022-09-01T18:52:55.064Z,18.43
2022-09-01T18:55:28.994Z,18.38
2022-09-01T18:58:03.061Z,18.36
2022-09-01T19:00:35.895Z,18.35
2022-09-01T19:03:14.877Z,18.33
2022-09-01T19:06:06.717Z,18.33
2022-09-01T19:08:47.088Z,18.31
2022-09-01T19:11:22.508Z,18.27
2022-09-01T19:14:03.416Z,18.22
2022-09-01T19:16:45.879Z,18.19
2022-09-01T19:19:24.498Z,18.18
2022-09-01T19:21:56.363Z,18.17
2022-09-01T19:24:30.621Z,18.14
2022-09-01T19:27:04.856Z,18.10
2022-09-01T19:29:39.099Z,18.07
2022-09-01T19:32:18.068Z,18.04
2022-09-01T19:34:52.681Z,18.00
2022-09-01T19:37:23.382Z,17.96
2022-09-01T19:39:54.604Z,17.92
2022-09-01T19:42:27.991Z,17.88
2022-09-01T19:45:06.260Z,17.84
2022-09-01T19:47:41.214Z,17.80
2022-09-01T19:50:17.701Z,17.77
2022-09-01T19:52:55.052Z,17.76
2022-09-01T19:55:31.480Z,17.75
2022-09-01T19:58:05.178Z,17.76
2022-09-01T20:00:50.741Z,17.78
2022-09-01T20:03:25.647Z,17.83
2022-09-01T20:05:58.370Z,17.89
2022-09-01T20:08:28.038Z,17.96
2022-09-01T20:11:03.221Z,18.01
2022-09-01T20:13:57.898Z,18.07
2022-09-01T20:16:31.677Z,18.12
2022-09-01T20:19:05.062Z,18.20
2022-09-01T20:21:39.855Z,18.24
2022-09-01T20:24:17.994Z,18.27
2022-09-01T20:26:57.350Z,18.33
2022-09-01T20:29:34.993Z,18.36
2022-09-01T20:32:06.075Z,18.38
2022-09-01T20:34:42.211Z,18.41
2022-09-01T20:37:17.504Z,18.41
2022-09-01T20:40:01.545Z,18.39
2022-09-01T20:42:41.094Z,18.38
2022-09-01T20:45:17.005Z,18.37
2022-09-01T20:47:52.693Z,18.35
2022-09-01T20:50:27.145Z,18.33
2022-09-01T20:53:17.578Z,18.30
2022-09-01T20:55:53.461Z,18.27
2022-09-01T20:58:33.019Z,18.23
2022-09-01T21:01:17.646Z,18.20
2022-09-01T21:04:03.327Z,18.17
2022-09-01T21:06:45.611Z,18.13
2022-09-01T21:09:19.370Z,18.08
2022-09-01T21:11:55.259Z,18.04
2022-09-01T21:14:42.901Z,17.99
2022-09-01T21:17:18.091Z,17.93
2022-09-01T21:20:02.354Z,17.89
2022-09-01T21:22:32.853Z,17.86
2022-09-01T21:25:03.331Z,17.83
2022-09-01T21:27:37.565Z,17.78
2022-09-01T21:30:10.640Z,17.73
2022-09-01T21:32:41.273Z,17.68
2022-09-01T21:35:14.295Z,17.62
2022-09-01T21:37:44.638Z,17.56
2022-09-01T21:40:16.135Z,17.51
2022-09-01T21:42:49.558Z,17.46
2022-09-01T21:45:21.360Z,17.41
2022-09-01T21:47:52.162Z,17.36
2022-09-01T21:50:24.373Z,17.29
2022-09-01T21:52:54.793Z,17.23
2022-09-01T21:55:25.380Z,17.20
2022-09-01T21:57:56.349Z,17.15
2022-09-01T22:00:28.968Z,17.12
2022-09-01T22:03:01.732Z,17.07
2022-09-01T22:05:31.068Z,17.04
2022-09-01T22:08:01.613Z,17.01
2022-09-01T22:10:33.015Z,16.96
2022-09-01T22:13:04.382Z,16.91
2022-09-01T22:15:34.821Z,16.83
2022-09-01T22:18:05.305Z,16.77
2022-09-01T22:20:35.870Z,16.72
2022-09-01T22:23:06.284Z,16.66
2022-09-01T22:25:40.736Z,16.62
2022-09-01T22:28:11.501Z,16.57
2022-09-01T22:30:48.522Z,16.52
2022-09-01T22:33:20.031Z,16.48
2022-09-01T22:35:52.148Z,16.41
2022-09-01T22:38:24.276Z,16.42
2022-09-01T22:40:56.315Z,16.39
2022-09-01T22:43:27.426Z,16.36
2022-09-01T22:45:59.770Z,16.32
2022-09-01T22:48:31.322Z,16.26
2022-09-01T22:51:07.200Z,16.21
2022-09-01T22:53:38.662Z,16.17
2022-09-01T22:56:14.219Z,16.13
2022-09-01T22:58:44.685Z,16.11
2022-09-01T23:01:16.918Z,16.10
2022-09-01T23:03:47.652Z,16.07
2022-09-01T23:06:27.410Z,16.04
2022-09-01T23:08:58.920Z,16.01
2022-09-01T23:11:29.627Z,15.97
2022-09-01T23:14:00.375Z,15.92
2022-09-01T23:16:30.823Z,15.92
2022-09-01T23:19:01.721Z,15.89
2022-09-01T23:21:34.776Z,15.86
2022-09-01T23:24:07.563Z,15.84
2022-09-01T23:26:36.656Z,15.82
2022-09-01T23:29:07.591Z,15.79
2022-09-01T23:31:39.726Z,15.82
2022-09-01T23:34:13.192Z,15.81
2022-09-01T23:36:43.741Z,15.78
2022-09-01T23:39:14.301Z,15.75
2022-09-01T23:41:44.705Z,15.73
2022-09-01T23:44:15.944Z,15.71
2022-09-01T23:46:47.528Z,15.69
2022-09-01T23:49:19.096Z,15.67
2022-09-01T23:51:50.030Z,15.65
2022-09-01T23:54:20.463Z,15.62
2022-09-01T23:56:50.957Z,15.64
2022-09-01T23:59:27.264Z,15.66
